^^
Station Historical Data
Daily Summary for January 30, 2018 Units:  Metric    English   Both
« Previous Day
Next Day »
Daily Weekly Monthly Yearly Custom
  High: Low: Average:
Temperature: -17.8 °C -19.8 °C -19.1 °C
Dew Point: -17.8 °C -20.5 °C -19.6 °C
Humidity: Humidity% 91% 93%
Wind Speed: 0km/h 0km/h 0.8km/h
Wind Gust: 0km/h - -
Wind- - ENE
Pressure: 0 hPa 33788.9 hPa -
Precipitation: 12.7 mm    
Historical Graphs
 
 
Tabular Data for January 30, 2018
Time Temperature Dew Point Pressure Wind Wind Speed Wind Gust Humidity Rainfall Rate (Hourly) solar Conditions
-17.8 °C -17.8 °C 0 hPa Calm     Humidity% 0 mm SoftwareType W/m2 Conditions
00:00 -18.3 °C -18.8 °C 33809.2 hPa ENE 4.2 km/h 9 km/h 94% 0 mm WeatherDisplay:10.37 W/m2 FEW
00:05 -18.4 °C -18.8 °C 33809.2 hPa ENE 2.6 km/h 10.3 km/h 94% 0 mm WeatherDisplay:10.37 W/m2 FEW
00:10 -18.4 °C -18.8 °C 33809.2 hPa ENE 1.6 km/h 2.6 km/h 94% 0 mm WeatherDisplay:10.37 W/m2 FEW
00:15 -18.4 °C -18.8 °C 33809.2 hPa ENE 0.5 km/h 6 km/h 94% 0 mm WeatherDisplay:10.37 W/m2 FEW
00:20 -18.4 °C -18.8 °C 33809.2 hPa Calm   6 km/h 94% 0 mm WeatherDisplay:10.37 W/m2 FEW
00:25 -18.4 °C -18.8 °C 33809.2 hPa ENE 1.3 km/h 9 km/h 94% 0 mm WeatherDisplay:10.37 W/m2 FEW
00:30 -18.4 °C -18.8 °C 33809.2 hPa Calm     94% 0 mm WeatherDisplay:10.37 W/m2 FEW
00:35 -18.4 °C -18.8 °C 33809.2 hPa NE 6.8 km/h 15 km/h 94% 0 mm WeatherDisplay:10.37 W/m2 FEW
00:40 -18.4 °C -18.8 °C 33809.2 hPa ENE 9.7 km/h 17.9 km/h 94% 0 mm WeatherDisplay:10.37 W/m2 FEW
00:45 -18.4 °C -18.8 °C 33809.2 hPa ENE 9 km/h 15 km/h 94% 0 mm WeatherDisplay:10.37 W/m2 FEW
00:50 -18.4 °C -18.9 °C 33809.2 hPa ENE 6.3 km/h 15 km/h 94% 0 mm WeatherDisplay:10.37 W/m2 FEW
00:55 -18.4 °C -18.9 °C 33809.2 hPa ENE 7.7 km/h 23.8 km/h 94% 0 mm WeatherDisplay:10.37 W/m2 FEW
01:00 -18.4 °C -18.9 °C 33809.2 hPa Calm     94% 0 mm WeatherDisplay:10.37 W/m2 FEW
01:05 -18.4 °C -18.9 °C 33809.2 hPa ENE 5.6 km/h 12.9 km/h 94% 0 mm WeatherDisplay:10.37 W/m2 FEW
01:10 -18.4 °C -18.9 °C 33809.2 hPa ENE 2.6 km/h 9 km/h 94% 0 mm WeatherDisplay:10.37 W/m2 FEW
01:15 -18.4 °C -18.9 °C 33809.2 hPa Calm     94% 0 mm WeatherDisplay:10.37 W/m2 FEW
01:20 -18.4 °C -18.9 °C 33809.2 hPa Calm     94% 0 mm WeatherDisplay:10.37 W/m2 FEW
01:25 -18.4 °C -18.9 °C 33809.2 hPa ENE 2.1 km/h 6 km/h 94% 0 mm WeatherDisplay:10.37 W/m2 FEW
01:30 -18.4 °C -18.9 °C 33809.2 hPa ENE 2.1 km/h 9 km/h 94% 0 mm WeatherDisplay:10.37 W/m2 FEW
01:35 -18.4 °C -18.9 °C 33799.1 hPa Calm   11.9 km/h 94% 0 mm WeatherDisplay:10.37 W/m2 FEW
01:40 -18.4 °C -18.9 °C 33799.1 hPa Calm     94% 0 mm WeatherDisplay:10.37 W/m2 FEW
01:45 -18.4 °C -18.9 °C 33799.1 hPa ENE 7.7 km/h 11.9 km/h 94% 0 mm WeatherDisplay:10.37 W/m2 FEW
01:50 -18.4 °C -18.9 °C 33799.1 hPa ENE 3.1 km/h 9 km/h 94% 0 mm WeatherDisplay:10.37 W/m2 FEW
01:55 -18.4 °C -18.9 °C 33799.1 hPa ENE 1.3 km/h 6 km/h 94% 0 mm WeatherDisplay:10.37 W/m2 FEW
02:00 -18.4 °C -18.9 °C 33799.1 hPa ENE 6.3 km/h 11.9 km/h 94% 0 mm WeatherDisplay:10.37 W/m2 FEW
02:05 -18.4 °C -18.9 °C 33799.1 hPa Calm     94% 0 mm WeatherDisplay:10.37 W/m2 FEW
02:10 -18.4 °C -18.9 °C 33799.1 hPa ENE 1.8 km/h 9 km/h 94% 0 mm WeatherDisplay:10.37 W/m2 FEW
02:15 -18.4 °C -18.9 °C 33799.1 hPa Calm     94% 0 mm WeatherDisplay:10.37 W/m2 FEW
02:20 -18.4 °C -18.9 °C 33799.1 hPa Calm   6 km/h 94% 0 mm WeatherDisplay:10.37 W/m2 FEW
02:25 -18.4 °C -18.9 °C 33799.1 hPa ENE 3.4 km/h 12.9 km/h 94% 0 mm WeatherDisplay:10.37 W/m2 FEW
02:30 -18.5 °C -18.9 °C 33799.1 hPa ENE 8.9 km/h 15 km/h 94% 0 mm WeatherDisplay:10.37 W/m2 FEW
02:35 -18.5 °C -18.9 °C 33799.1 hPa ENE 0.3 km/h 5.1 km/h 94% 0 mm WeatherDisplay:10.37 W/m2 FEW
02:40 -18.5 °C -18.9 °C 33799.1 hPa ENE 9.3 km/h 15 km/h 94% 0 mm WeatherDisplay:10.37 W/m2 FEW
02:45 -18.5 °C -18.9 °C 33788.9 hPa ENE 1.8 km/h 9 km/h 94% 0 mm WeatherDisplay:10.37 W/m2 FEW
02:50 -18.5 °C -18.9 °C 33788.9 hPa Calm     94% 0 mm WeatherDisplay:10.37 W/m2 FEW
02:55 -18.5 °C -18.9 °C 33799.1 hPa NE 0.3 km/h 2.6 km/h 94% 0 mm WeatherDisplay:10.37 W/m2 FEW
03:00 -18.5 °C -18.9 °C 33799.1 hPa Calm     94% 0 mm WeatherDisplay:10.37 W/m2 FEW
03:05 -18.5 °C -18.9 °C 33788.9 hPa ENE 1.8 km/h 11.9 km/h 94% 0 mm WeatherDisplay:10.37 W/m2 FEW
03:10 -18.5 °C -19 °C 33799.1 hPa ENE 3.4 km/h 9 km/h 94% 0 mm WeatherDisplay:10.37 W/m2 FEW
03:15 -18.5 °C -19 °C 33788.9 hPa ENE 2.9 km/h 23.3 km/h 94% 0 mm WeatherDisplay:10.37 W/m2 FEW
03:20 -18.6 °C -19 °C 33788.9 hPa ENE 4.7 km/h 9 km/h 94% 0 mm WeatherDisplay:10.37 W/m2 FEW
03:25 -18.6 °C -19 °C 33788.9 hPa Calm   3.1 km/h 94% 0 mm WeatherDisplay:10.37 W/m2 FEW
03:30 -18.6 °C -19.1 °C 33788.9 hPa ENE 5 km/h 9 km/h 94% 0 mm WeatherDisplay:10.37 W/m2 FEW
03:35 -18.6 °C -19.1 °C 33788.9 hPa ENE 14.8 km/h 23.8 km/h 94% 0 mm WeatherDisplay:10.37 W/m2 FEW
03:40 -18.6 °C -19.1 °C 33788.9 hPa Calm   11.9 km/h 94% 0 mm WeatherDisplay:10.37 W/m2 FEW
03:45 -18.6 °C -19.1 °C 33788.9 hPa ENE 1 km/h 7.7 km/h 94% 0 mm WeatherDisplay:10.37 W/m2 FEW
03:50 -18.6 °C -19.1 °C 33788.9 hPa ENE 4.3 km/h 9 km/h 94% 0 mm WeatherDisplay:10.37 W/m2 FEW
03:55 -18.6 °C -19.1 °C 33788.9 hPa ENE 5.1 km/h 15 km/h 94% 0 mm WeatherDisplay:10.37 W/m2 FEW
04:00 -18.6 °C -19.1 °C 33788.9 hPa Calm     94% 0 mm WeatherDisplay:10.37 W/m2 FEW
04:05 -18.7 °C -19.1 °C 33788.9 hPa ENE 3.1 km/h 20.8 km/h 94% 0 mm WeatherDisplay:10.37 W/m2 FEW
04:10 -18.7 °C -19.1 °C 33788.9 hPa Calm   9 km/h 94% 0 mm WeatherDisplay:10.37 W/m2 FEW
04:15 -18.7 °C -19.1 °C 33788.9 hPa ENE 1.3 km/h 9 km/h 94% 0 mm WeatherDisplay:10.37 W/m2 FEW
04:20 -18.7 °C -19.1 °C 33788.9 hPa ENE 3.1 km/h 9 km/h 94% 0 mm WeatherDisplay:10.37 W/m2 FEW
04:25 -18.7 °C -19.2 °C 33788.9 hPa ENE 1 km/h 6 km/h 93% 0 mm WeatherDisplay:10.37 W/m2 FEW
04:30 -18.7 °C -19.2 °C 33788.9 hPa ENE 4.3 km/h 9 km/h 93% 0 mm WeatherDisplay:10.37 W/m2 FEW
04:35 -18.7 °C -19.2 °C 33788.9 hPa ENE 0.5 km/h 9 km/h 93% 0 mm WeatherDisplay:10.37 W/m2 FEW
04:40 -18.7 °C -19.2 °C 33788.9 hPa ENE 0.5 km/h 9 km/h 93% 0 mm WeatherDisplay:10.37 W/m2 FEW
04:45 -18.7 °C -19.2 °C 33788.9 hPa ENE 3.9 km/h 9 km/h 93% 0 mm WeatherDisplay:10.37 W/m2 FEW
04:50 -18.7 °C -19.2 °C 33788.9 hPa ENE 0.3 km/h 5.1 km/h 93% 0 mm WeatherDisplay:10.37 W/m2 FEW
04:55 -18.7 °C -19.3 °C 33788.9 hPa Calm     93% 0 mm WeatherDisplay:10.37 W/m2 FEW
05:00 -18.7 °C -19.3 °C 33788.9 hPa Calm     93% 0 mm WeatherDisplay:10.37 W/m2 FEW
05:05 -18.7 °C -19.3 °C 33788.9 hPa Calm   5.1 km/h 93% 0 mm WeatherDisplay:10.37 W/m2 FEW
05:10 -18.7 °C -19.3 °C 33799.1 hPa Calm     93% 0 mm WeatherDisplay:10.37 W/m2 FEW
05:15 -18.7 °C -19.3 °C 33799.1 hPa ENE 0.8 km/h 11.9 km/h 93% 0 mm WeatherDisplay:10.37 W/m2 FEW
05:20 -18.7 °C -19.3 °C 33799.1 hPa Calm     93% 0 mm WeatherDisplay:10.37 W/m2 FEW
05:25 -18.7 °C -19.3 °C 33799.1 hPa Calm     93% 0 mm WeatherDisplay:10.37 W/m2 FEW
05:30 -18.7 °C -19.3 °C 33799.1 hPa Calm     93% 0 mm WeatherDisplay:10.37 W/m2 FEW
05:35 -18.7 °C -19.3 °C 33799.1 hPa ENE 0.3 km/h 6 km/h 93% 0 mm WeatherDisplay:10.37 W/m2 FEW
05:40 -18.7 °C -19.3 °C 33799.1 hPa Calm     93% 0 mm WeatherDisplay:10.37 W/m2 FEW
05:45 -18.7 °C -19.3 °C 33799.1 hPa Calm   6 km/h 93% 0 mm WeatherDisplay:10.37 W/m2 FEW
05:50 -18.7 °C -19.3 °C 33799.1 hPa ENE 1 km/h 7.7 km/h 93% 0 mm WeatherDisplay:10.37 W/m2 FEW
05:55 -18.7 °C -19.3 °C 33799.1 hPa Calm   6 km/h 93% 0 mm WeatherDisplay:10.37 W/m2 FEW
06:00 -18.7 °C -19.3 °C 33799.1 hPa Calm     93% 0 mm WeatherDisplay:10.37 W/m2 FEW
06:05 -18.7 °C -19.3 °C 33799.1 hPa ENE 4.7 km/h 9 km/h 93% 0 mm WeatherDisplay:10.37 W/m2 FEW
06:10 -18.8 °C -19.3 °C 33799.1 hPa Calm     93% 0 mm WeatherDisplay:10.37 W/m2 FEW
06:15 -18.8 °C -19.3 °C 33799.1 hPa ENE 0.3 km/h 3.1 km/h 93% 0 mm WeatherDisplay:10.37 W/m2 FEW
06:20 -18.8 °C -19.3 °C 33799.1 hPa Calm     93% 0 mm WeatherDisplay:10.37 W/m2 FEW
06:25 -18.8 °C -19.3 °C 33799.1 hPa ENE 1.6 km/h 7.7 km/h 93% 0 mm WeatherDisplay:10.37 W/m2 FEW
06:30 -18.8 °C -19.3 °C 33799.1 hPa ENE 0.8 km/h 5.1 km/h 93% 0 mm WeatherDisplay:10.37 W/m2 FEW
06:35 -18.8 °C -19.3 °C 33799.1 hPa ENE 3.4 km/h 9 km/h 93% 0 mm WeatherDisplay:10.37 W/m2 FEW
06:40 -18.8 °C -19.3 °C 33809.2 hPa ENE 1.6 km/h 6 km/h 93% 0 mm WeatherDisplay:10.37 W/m2 FEW
06:45 -18.8 °C -19.3 °C 33809.2 hPa Calm   6 km/h 93% 0 mm WeatherDisplay:10.37 W/m2 FEW
06:50 -18.8 °C -19.3 °C 33809.2 hPa ENE 1.6 km/h 5.1 km/h 93% 0 mm WeatherDisplay:10.37 W/m2 FEW
06:55 -18.8 °C -19.3 °C 33809.2 hPa Calm     93% 0 mm WeatherDisplay:10.37 W/m2 FEW
07:00 -18.8 °C -19.3 °C 33809.2 hPa ENE 0.3 km/h 3.1 km/h 93% 0 mm WeatherDisplay:10.37 W/m2 FEW
07:05 -18.8 °C -19.3 °C 33809.2 hPa Calm     93% 0 mm WeatherDisplay:10.37 W/m2 FEW
07:10 -18.8 °C -19.4 °C 33809.2 hPa Calm     93% 0 mm WeatherDisplay:10.37 W/m2 FEW
07:15 -18.8 °C -19.4 °C 33809.2 hPa Calm     93% 0 mm WeatherDisplay:10.37 W/m2 FEW
07:20 -18.8 °C -19.4 °C 33809.2 hPa Calm     93% 0 mm WeatherDisplay:10.37 W/m2 FEW
07:25 -18.8 °C -19.4 °C 33822.8 hPa Calm     93% 0 mm WeatherDisplay:10.37 W/m2 FEW
07:30 -18.8 °C -19.4 °C 33822.8 hPa Calm     93% 0 mm WeatherDisplay:10.37 W/m2 FEW
07:35 -18.8 °C -19.4 °C 33809.2 hPa Calm     93% 0 mm WeatherDisplay:10.37 W/m2 FEW
07:40 -18.8 °C -19.4 °C 33822.8 hPa Calm     93% 0 mm WeatherDisplay:10.37 W/m2 FEW
07:45 -18.9 °C -19.4 °C 33822.8 hPa Calm     93% 0 mm WeatherDisplay:10.37 W/m2 FEW
07:50 -18.9 °C -19.4 °C 33822.8 hPa Calm     93% 0 mm WeatherDisplay:10.37 W/m2 FEW
07:55 -18.9 °C -19.4 °C 33822.8 hPa Calm     93% 0 mm WeatherDisplay:10.37 W/m2 FEW
08:00 -18.9 °C -19.4 °C 33822.8 hPa Calm     93% 7.62 mm WeatherDisplay:10.37 W/m2 RA
08:05 -18.9 °C -19.4 °C 33822.8 hPa Calm     93% 7.62 mm WeatherDisplay:10.37 W/m2 RA
08:10 -18.9 °C -19.5 °C 33822.8 hPa Calm     93% 7.62 mm WeatherDisplay:10.37 W/m2 FEW
08:15 -18.9 °C -19.5 °C 33822.8 hPa Calm     93% 7.62 mm WeatherDisplay:10.37 W/m2 FEW
08:20 -18.9 °C -19.5 °C 33832.9 hPa Calm     93% 7.62 mm WeatherDisplay:10.37 W/m2 FEW
08:25 -19 °C -19.6 °C 33832.9 hPa ENE 1.8 km/h 6 km/h 93% 7.62 mm WeatherDisplay:10.37 W/m2 FEW
08:30 -19 °C -19.6 °C 33832.9 hPa Calm     93% 7.62 mm WeatherDisplay:10.37 W/m2 FEW
08:35 -19 °C -19.6 °C 33832.9 hPa Calm     93% 7.62 mm WeatherDisplay:10.37 W/m2 FEW
08:40 -19 °C -19.6 °C 33832.9 hPa Calm     93% 7.62 mm WeatherDisplay:10.37 W/m2 FEW
08:45 -19 °C -19.6 °C 33832.9 hPa Calm     93% 7.62 mm WeatherDisplay:10.37 W/m2 FEW
08:50 -19.1 °C -19.6 °C 33843.1 hPa Calm     93% 7.62 mm WeatherDisplay:10.37 W/m2 FEW
08:55 -19 °C -19.6 °C 33843.1 hPa Calm     93% 7.62 mm WeatherDisplay:10.37 W/m2 FEW
09:00 -19 °C -19.6 °C 33843.1 hPa Calm     93% 0 mm WeatherDisplay:10.37 W/m2 FEW
09:05 -19 °C -19.6 °C 33843.1 hPa ENE 2.6 km/h 9 km/h 93% 0 mm WeatherDisplay:10.37 W/m2 FEW
09:10 -19.1 °C -19.6 °C 33843.1 hPa Calm     93% 0 mm WeatherDisplay:10.37 W/m2 FEW
09:15 -19.1 °C -19.6 °C 33843.1 hPa Calm     93% 0 mm WeatherDisplay:10.37 W/m2 FEW
09:20 -19.1 °C -19.6 °C 33856.6 hPa Calm     93% 0 mm WeatherDisplay:10.37 W/m2 FEW
09:25 -19.1 °C -19.6 °C 33856.6 hPa Calm     93% 0 mm WeatherDisplay:10.37 W/m2 FEW
09:30 -19.1 °C -19.6 °C 33856.6 hPa Calm     93% 0 mm WeatherDisplay:10.37 W/m2 FEW
09:35 -19.1 °C -19.6 °C 33856.6 hPa Calm     93% 0 mm WeatherDisplay:10.37 W/m2 FEW
09:40 -19.1 °C -19.6 °C 33856.6 hPa Calm     93% 0 mm WeatherDisplay:10.37 W/m2 FEW
09:45 -19 °C -19.6 °C 33856.6 hPa ENE 0.8 km/h 3.1 km/h 93% 0 mm WeatherDisplay:10.37 W/m2 FEW
09:50 -19 °C -19.6 °C 33856.6 hPa Calm     93% 0 mm WeatherDisplay:10.37 W/m2 FEW
09:55 -19 °C -19.6 °C 33856.6 hPa Calm     93% 0 mm WeatherDisplay:10.37 W/m2 FEW
10:00 -19 °C -19.6 °C 33866.8 hPa Calm     93% 0 mm WeatherDisplay:10.37 W/m2 FEW
10:05 -19 °C -19.6 °C 33866.8 hPa Calm     93% 0 mm WeatherDisplay:10.37 W/m2 FEW
10:10 -19 °C -19.6 °C 33866.8 hPa Calm     93% 0 mm WeatherDisplay:10.37 W/m2 FEW
10:15 -19 °C -19.6 °C 33866.8 hPa Calm     93% 0 mm WeatherDisplay:10.37 W/m2 FEW
10:20 -19 °C -19.6 °C 33866.8 hPa Calm     93% 0 mm WeatherDisplay:10.37 W/m2 FEW
10:25 -19 °C -19.6 °C 33880.3 hPa Calm     93% 0 mm WeatherDisplay:10.37 W/m2 FEW
10:30 -19 °C -19.6 °C 33880.3 hPa Calm     93% 0 mm WeatherDisplay:10.37 W/m2 FEW
10:35 -19 °C -19.6 °C 33880.3 hPa Calm     93% 0 mm WeatherDisplay:10.37 W/m2 FEW
10:40 -19 °C -19.6 °C 33880.3 hPa Calm     93% 0 mm WeatherDisplay:10.37 W/m2 FEW
10:45 -19 °C -19.6 °C 33880.3 hPa Calm     93% 0 mm WeatherDisplay:10.37 W/m2 FEW
10:50 -19 °C -19.6 °C 33890.5 hPa Calm     93% 0 mm WeatherDisplay:10.37 W/m2 FEW
10:55 -18.9 °C -19.5 °C 33890.5 hPa Calm     93% 0 mm WeatherDisplay:10.37 W/m2 FEW
11:00 -18.9 °C -19.5 °C 33890.5 hPa Calm     93% 0 mm WeatherDisplay:10.37 W/m2 FEW
11:05 -18.9 °C -19.5 °C 33890.5 hPa Calm     93% 0 mm WeatherDisplay:10.37 W/m2 FEW
11:10 -18.9 °C -19.5 °C 33890.5 hPa Calm   3.1 km/h 93% 0 mm WeatherDisplay:10.37 W/m2 FEW
11:15 -18.9 °C -19.5 °C 33900.6 hPa Calm     93% 0 mm WeatherDisplay:10.37 W/m2 FEW
11:20 -18.9 °C -19.5 °C 33900.6 hPa ENE 0.5 km/h 5.1 km/h 93% 0 mm WeatherDisplay:10.37 W/m2 FEW
11:25 -18.9 °C -19.5 °C 33900.6 hPa Calm     93% 0 mm WeatherDisplay:10.37 W/m2 FEW
11:30 -18.9 °C -19.5 °C 33900.6 hPa NE 1.6 km/h 6 km/h 93% 0 mm WeatherDisplay:10.37 W/m2 FEW
11:35 -19 °C -19.6 °C 33900.6 hPa NE 3.1 km/h   93% 0 mm WeatherDisplay:10.37 W/m2 FEW
11:40 -19 °C -19.6 °C 33900.6 hPa NE 0.8 km/h 11.9 km/h 92% 0 mm WeatherDisplay:10.37 W/m2 FEW
11:45 -19 °C -19.6 °C 33900.6 hPa Calm     92% 0 mm WeatherDisplay:10.37 W/m2 FEW
11:50 -19 °C -19.6 °C 33900.6 hPa Calm     92% 0 mm WeatherDisplay:10.37 W/m2 FEW
11:55 -19 °C -19.6 °C 33914.2 hPa Calm     92% 0 mm WeatherDisplay:10.37 W/m2 FEW
12:00 -19 °C -19.6 °C 33914.2 hPa NE 1.6 km/h   92% 0 mm WeatherDisplay:10.37 W/m2 FEW
12:05 -19 °C -19.6 °C 33914.2 hPa Calm     92% 0 mm WeatherDisplay:10.37 W/m2 FEW
12:10 -19 °C -19.7 °C 33914.2 hPa NE 2.1 km/h 9 km/h 91% 0 mm WeatherDisplay:10.37 W/m2 FEW
12:15 -19 °C -19.7 °C 33914.2 hPa NE 2.6 km/h 6 km/h 91% 0 mm WeatherDisplay:10.37 W/m2 FEW
12:20 -19 °C -19.7 °C 33914.2 hPa Calm     91% 0 mm WeatherDisplay:10.37 W/m2 FEW
12:25 -19 °C -19.7 °C 33914.2 hPa Calm     91% 0 mm WeatherDisplay:10.37 W/m2 FEW
12:30 -19 °C -19.7 °C 33914.2 hPa Calm     91% 0 mm WeatherDisplay:10.37 W/m2 FEW
12:35 -19 °C -19.7 °C 33914.2 hPa NE 3.4 km/h 5.1 km/h 91% 0 mm WeatherDisplay:10.37 W/m2 FEW
12:40 -19 °C -19.7 °C 33924.3 hPa Calm     91% 0 mm WeatherDisplay:10.37 W/m2 FEW
12:45 -18.9 °C -19.7 °C 33924.3 hPa NE 1.8 km/h 5.1 km/h 91% 0 mm WeatherDisplay:10.37 W/m2 FEW
12:50 -18.9 °C -19.7 °C 33924.3 hPa NE 5.1 km/h 10.3 km/h 91% 0 mm WeatherDisplay:10.37 W/m2 FEW
12:55 -19 °C -19.7 °C 33924.3 hPa Calm   9 km/h 91% 0 mm WeatherDisplay:10.37 W/m2 FEW
13:00 -19 °C -19.7 °C 33924.3 hPa Calm   3.1 km/h 91% 0 mm WeatherDisplay:10.37 W/m2 FEW
13:05 -19 °C -19.7 °C 33924.3 hPa Calm     91% 0 mm WeatherDisplay:10.37 W/m2 FEW
13:10 -19 °C -19.7 °C 33924.3 hPa Calm     91% 0 mm WeatherDisplay:10.37 W/m2 FEW
13:15 -19 °C -19.7 °C 33924.3 hPa Calm     91% 0 mm WeatherDisplay:10.37 W/m2 FEW
13:20 -19 °C -19.7 °C 33924.3 hPa Calm     91% 0 mm WeatherDisplay:10.37 W/m2 FEW
13:25 -19 °C -19.7 °C 33937.9 hPa Calm     91% 0 mm WeatherDisplay:10.37 W/m2 FEW
13:30 -19 °C -19.7 °C 33937.9 hPa NE 0.5 km/h 3.1 km/h 91% 0 mm WeatherDisplay:10.37 W/m2 FEW
13:35 -19 °C -19.7 °C 33937.9 hPa Calm   6 km/h 91% 0 mm WeatherDisplay:10.37 W/m2 FEW
13:40 -19 °C -19.6 °C 33937.9 hPa Calm     92% 0 mm WeatherDisplay:10.37 W/m2 FEW
13:45 -19 °C -19.6 °C 33937.9 hPa Calm     92% 0 mm WeatherDisplay:10.37 W/m2 FEW
13:50 -19 °C -19.6 °C 33937.9 hPa Calm     92% 0 mm WeatherDisplay:10.37 W/m2 FEW
13:55 -19 °C -19.6 °C 33948 hPa Calm     92% 0 mm WeatherDisplay:10.37 W/m2 FEW
14:00 -19.1 °C -19.7 °C 33948 hPa Calm     92% 0 mm WeatherDisplay:10.37 W/m2 FEW
14:05 -19.1 °C -19.7 °C 33948 hPa NE 0.3 km/h 2.6 km/h 92% 0 mm WeatherDisplay:10.37 W/m2 FEW
14:10 -19.1 °C -19.7 °C 33948 hPa NE 2.3 km/h 9 km/h 92% 0 mm WeatherDisplay:10.37 W/m2 FEW
14:15 -19.1 °C -19.8 °C 33948 hPa Calm     91% 0 mm WeatherDisplay:10.37 W/m2 FEW
14:20 -19.1 °C -19.7 °C 33958.2 hPa Calm     92% 0 mm WeatherDisplay:10.37 W/m2 FEW
14:25 -19.1 °C -19.7 °C 33958.2 hPa Calm     92% 0 mm WeatherDisplay:10.37 W/m2 FEW
14:30 -19.1 °C -19.7 °C 33958.2 hPa Calm     92% 0 mm WeatherDisplay:10.37 W/m2 FEW
14:35 -19.1 °C -19.7 °C 33958.2 hPa Calm     92% 0 mm WeatherDisplay:10.37 W/m2 FEW
14:40 -19.1 °C -19.7 °C 33958.2 hPa Calm     92% 0 mm WeatherDisplay:10.37 W/m2 FEW
14:45 -19.1 °C -19.7 °C 33958.2 hPa Calm     92% 0 mm WeatherDisplay:10.37 W/m2 FEW
14:50 -19.1 °C -19.7 °C 33971.7 hPa Calm     92% 0 mm WeatherDisplay:10.37 W/m2 FEW
14:55 -19.1 °C -19.7 °C 33971.7 hPa Calm     92% 0 mm WeatherDisplay:10.37 W/m2 FEW
15:00 -19.1 °C -19.7 °C 33971.7 hPa Calm     92% 0 mm WeatherDisplay:10.37 W/m2 FEW
15:05 -19.1 °C -19.7 °C 33971.7 hPa Calm     92% 0 mm WeatherDisplay:10.37 W/m2 FEW
15:10 -19.1 °C -19.7 °C 33971.7 hPa Calm     92% 0 mm WeatherDisplay:10.37 W/m2 FEW
15:15 -19.1 °C -19.7 °C 33981.9 hPa NE 2.1 km/h 2.6 km/h 92% 0 mm WeatherDisplay:10.37 W/m2 FEW
15:20 -19.1 °C -19.7 °C 33981.9 hPa Calm     92% 0 mm WeatherDisplay:10.37 W/m2 FEW
15:25 -19.1 °C -19.8 °C 33981.9 hPa Calm     92% 0 mm WeatherDisplay:10.37 W/m2 FEW
15:30 -19.2 °C -19.9 °C 33981.9 hPa NE 2.6 km/h 6 km/h 91% 0 mm WeatherDisplay:10.37 W/m2 FEW
15:35 -19.2 °C -19.9 °C 33992.1 hPa Calm     91% 0 mm WeatherDisplay:10.37 W/m2 FEW
15:40 -19.3 °C -19.9 °C 33992.1 hPa Calm     91% 0 mm WeatherDisplay:10.37 W/m2 FEW
15:45 -19.3 °C -20 °C 33992.1 hPa NE 1.8 km/h 9 km/h 91% 0 mm WeatherDisplay:10.37 W/m2 FEW
15:50 -19.3 °C -20.1 °C 33992.1 hPa Calm     91% 0 mm WeatherDisplay:10.37 W/m2 FEW
15:55 -19.3 °C -20.1 °C 33992.1 hPa Calm     91% 0 mm WeatherDisplay:10.37 W/m2 FEW
16:00 -19.3 °C -20.1 °C 33992.1 hPa Calm     91% 7.62 mm WeatherDisplay:10.37 W/m2 RA
16:05 -19.3 °C -20.1 °C 33992.1 hPa Calm     91% 7.62 mm WeatherDisplay:10.37 W/m2 RA
16:10 -19.3 °C -20.1 °C 34005.6 hPa Calm     91% 7.62 mm WeatherDisplay:10.37 W/m2 FEW
16:15 -19.3 °C -20.1 °C 34005.6 hPa Calm     91% 7.62 mm WeatherDisplay:10.37 W/m2 FEW
16:20 -19.3 °C -20.1 °C 34005.6 hPa Calm     91% 7.62 mm WeatherDisplay:10.37 W/m2 FEW
16:25 -19.3 °C -20.1 °C 34005.6 hPa Calm     91% 7.62 mm WeatherDisplay:10.37 W/m2 FEW
16:30 -19.3 °C -20.1 °C 34005.6 hPa Calm     91% 7.62 mm WeatherDisplay:10.37 W/m2 FEW
16:35 -19.3 °C -20.1 °C 34005.6 hPa Calm     91% 7.62 mm WeatherDisplay:10.37 W/m2 FEW
16:40 -19.4 °C -20 °C 34005.6 hPa Calm     92% 7.62 mm WeatherDisplay:10.37 W/m2 FEW
16:45 -19.4 °C -20.1 °C 34005.6 hPa Calm     92% 7.62 mm WeatherDisplay:10.37 W/m2 FEW
16:50 -19.4 °C -20.1 °C 34015.8 hPa Calm     92% 7.62 mm WeatherDisplay:10.37 W/m2 FEW
16:55 -19.4 °C -20.1 °C 34015.8 hPa Calm     92% 7.62 mm WeatherDisplay:10.37 W/m2 FEW
17:00 -19.4 °C -20.1 °C 34015.8 hPa Calm     92% 0 mm WeatherDisplay:10.37 W/m2 FEW
17:05 -19.5 °C -20.1 °C 34015.8 hPa NE 0.8 km/h 5.1 km/h 92% 0 mm WeatherDisplay:10.37 W/m2 FEW
17:10 -19.5 °C -20.1 °C 34015.8 hPa Calm   9 km/h 92% 0 mm WeatherDisplay:10.37 W/m2 FEW
17:15 -19.5 °C -20 °C 34015.8 hPa NE 5.1 km/h 9 km/h 93% 0 mm WeatherDisplay:10.37 W/m2 FEW
17:20 -19.5 °C -20.1 °C 34015.8 hPa Calm     93% 0 mm WeatherDisplay:10.37 W/m2 FEW
17:25 -19.5 °C -20 °C 34029.3 hPa Calm     93% 0 mm WeatherDisplay:10.37 W/m2 FEW
17:30 -19.5 °C -20 °C 34029.3 hPa Calm     93% 0 mm WeatherDisplay:10.37 W/m2 FEW
17:35 -19.5 °C -20 °C 34029.3 hPa Calm   9 km/h 93% 0 mm WeatherDisplay:10.37 W/m2 FEW
17:40 -19.5 °C -20.1 °C 34029.3 hPa NE 2.1 km/h 2.6 km/h 93% 0 mm WeatherDisplay:10.37 W/m2 FEW
17:45 -19.5 °C -20.1 °C 34029.3 hPa NE 1.8 km/h 7.7 km/h 93% 0 mm WeatherDisplay:10.37 W/m2 FEW
17:50 -19.5 °C -20.1 °C 34029.3 hPa Calm   9 km/h 93% 0 mm WeatherDisplay:10.37 W/m2 FEW
17:55 -19.5 °C -20.1 °C 34029.3 hPa Calm     93% 0 mm WeatherDisplay:10.37 W/m2 FEW
18:00 -19.5 °C -20.1 °C 34029.3 hPa Calm     93% 0 mm WeatherDisplay:10.37 W/m2 FEW
18:05 -19.5 °C -20.1 °C 34029.3 hPa Calm     93% 0 mm WeatherDisplay:10.37 W/m2 FEW
18:10 -19.5 °C -20.1 °C 34039.5 hPa Calm     93% 0 mm WeatherDisplay:10.37 W/m2 FEW
18:15 -19.5 °C -20.1 °C 34039.5 hPa NE 5.1 km/h 9 km/h 93% 0 mm WeatherDisplay:10.37 W/m2 FEW
18:20 -19.5 °C -20.1 °C 34039.5 hPa Calm     93% 0 mm WeatherDisplay:10.37 W/m2 FEW
18:25 -19.5 °C -20.1 °C 34039.5 hPa Calm     93% 0 mm WeatherDisplay:10.37 W/m2 FEW
18:30 -19.5 °C -20.1 °C 34039.5 hPa Calm     93% 0 mm WeatherDisplay:10.37 W/m2 FEW
18:35 -19.5 °C -20.1 °C 34039.5 hPa Calm     93% 0 mm WeatherDisplay:10.37 W/m2 FEW
18:40 -19.5 °C -20.1 °C 34039.5 hPa Calm     93% 0 mm WeatherDisplay:10.37 W/m2 FEW
18:45 -19.5 °C -20.1 °C 34039.5 hPa Calm     93% 0 mm WeatherDisplay:10.37 W/m2 FEW
18:50 -19.6 °C -20.1 °C 34039.5 hPa Calm     93% 0 mm WeatherDisplay:10.37 W/m2 FEW
18:55 -19.6 °C -20.1 °C 34049.6 hPa Calm     93% 0 mm WeatherDisplay:10.37 W/m2 FEW
19:00 -19.6 °C -20.1 °C 34049.6 hPa Calm     93% 0 mm WeatherDisplay:10.37 W/m2 FEW
19:05 -19.6 °C -20.1 °C 34049.6 hPa Calm     93% 0 mm WeatherDisplay:10.37 W/m2 FEW
19:10 -19.6 °C -20.1 °C 34049.6 hPa Calm     93% 0 mm WeatherDisplay:10.37 W/m2 FEW
19:15 -19.6 °C -20.1 °C 34049.6 hPa Calm     94% 0 mm WeatherDisplay:10.37 W/m2 FEW
19:20 -19.6 °C -20.1 °C 34063.2 hPa Calm     94% 0 mm WeatherDisplay:10.37 W/m2 FEW
19:25 -19.6 °C -20.1 °C 34063.2 hPa Calm     94% 0 mm WeatherDisplay:10.37 W/m2 FEW
19:30 -19.6 °C -20 °C 34063.2 hPa Calm     94% 0 mm WeatherDisplay:10.37 W/m2 FEW
19:35 -19.6 °C -20 °C 34063.2 hPa Calm     94% 0 mm WeatherDisplay:10.37 W/m2 FEW
19:36 -19.6 °C -20 °C 34063.2 hPa Calm     94% 0 mm WeatherDisplay:10.37 W/m2 FEW
19:41 -19.5 °C -19.9 °C 34063.2 hPa Calm     94% 0 mm WeatherDisplay:10.37 W/m2 FEW
19:46 -19.5 °C -19.9 °C 34063.2 hPa Calm     94% 0 mm WeatherDisplay:10.37 W/m2 FEW
19:51 -19.5 °C -19.9 °C 34063.2 hPa Calm     94% 7.62 mm WeatherDisplay:10.37 W/m2 RA
19:56 -19.4 °C -19.9 °C 34063.2 hPa Calm     94% 7.62 mm WeatherDisplay:10.37 W/m2 RA
20:01 -19.4 °C -19.9 °C 34073.3 hPa Calm     94% 7.62 mm WeatherDisplay:10.37 W/m2 FEW
20:06 -19.4 °C -19.9 °C 34073.3 hPa Calm     94% 7.62 mm WeatherDisplay:10.37 W/m2 FEW
20:11 -19.4 °C -19.9 °C 34073.3 hPa Calm     94% 7.62 mm WeatherDisplay:10.37 W/m2 FEW
20:16 -19.4 °C -19.9 °C 34073.3 hPa Calm     94% 7.62 mm WeatherDisplay:10.37 W/m2 FEW
20:21 -19.4 °C -19.9 °C 34073.3 hPa Calm     94% 7.62 mm WeatherDisplay:10.37 W/m2 FEW
20:26 -19.4 °C -19.8 °C 34073.3 hPa Calm     94% 7.62 mm WeatherDisplay:10.37 W/m2 FEW
20:31 -19.4 °C -19.9 °C 34073.3 hPa Calm     94% 7.62 mm WeatherDisplay:10.37 W/m2 FEW
20:36 -19.3 °C -19.8 °C 34086.9 hPa Calm     94% 7.62 mm WeatherDisplay:10.37 W/m2 FEW
20:41 -19.3 °C -19.8 °C 34086.9 hPa Calm     94% 7.62 mm WeatherDisplay:10.37 W/m2 FEW
20:46 -19.4 °C -19.9 °C 34086.9 hPa Calm   3.1 km/h 94% 7.62 mm WeatherDisplay:10.37 W/m2 FEW
20:51 -19.4 °C -20 °C 34086.9 hPa NE 1.6 km/h 2.6 km/h 93% 0 mm WeatherDisplay:10.37 W/m2 FEW
20:56 -19.5 °C -20 °C 34097 hPa Calm     93% 0 mm WeatherDisplay:10.37 W/m2 FEW
21:01 -19.5 °C -20.1 °C 34097 hPa Calm     93% 0 mm WeatherDisplay:10.37 W/m2 FEW
21:06 -19.5 °C -20.1 °C 34097 hPa Calm     93% 0 mm WeatherDisplay:10.37 W/m2 FEW
21:11 -19.5 °C -20.1 °C 34097 hPa Calm     93% 0 mm WeatherDisplay:10.37 W/m2 FEW
21:16 -19.5 °C -20.1 °C 34097 hPa Calm     93% 0 mm WeatherDisplay:10.37 W/m2 FEW
21:21 -19.5 °C -20 °C 34097 hPa Calm     93% 0 mm WeatherDisplay:10.37 W/m2 FEW
21:26 -19.5 °C -20 °C 34097 hPa Calm     93% 0 mm WeatherDisplay:10.37 W/m2 FEW
21:31 -19.5 °C -20 °C 34097 hPa Calm     93% 0 mm WeatherDisplay:10.37 W/m2 FEW
21:36 -19.5 °C -20.1 °C 34097 hPa Calm     93% 0 mm WeatherDisplay:10.37 W/m2 FEW
21:41 -19.6 °C -20.1 °C 34097 hPa Calm     93% 0 mm WeatherDisplay:10.37 W/m2 FEW
21:46 -19.6 °C -20.1 °C 34097 hPa Calm     93% 0 mm WeatherDisplay:10.37 W/m2 FEW
21:51 -19.6 °C -20.1 °C 34107.2 hPa Calm     93% 0 mm WeatherDisplay:10.37 W/m2 FEW
21:56 -19.6 °C -20.1 °C 34107.2 hPa Calm     93% 0 mm WeatherDisplay:10.37 W/m2 FEW
22:01 -19.6 °C -20.2 °C 34107.2 hPa Calm     92% 0 mm WeatherDisplay:10.37 W/m2 FEW
22:06 -19.6 °C -20.2 °C 34107.2 hPa Calm     92% 0 mm WeatherDisplay:10.37 W/m2 FEW
22:11 -19.6 °C -20.2 °C 34107.2 hPa Calm     92% 0 mm WeatherDisplay:10.37 W/m2 FEW
22:16 -19.6 °C -20.2 °C 34107.2 hPa Calm     92% 0 mm WeatherDisplay:10.37 W/m2 FEW
22:21 -19.6 °C -20.2 °C 34107.2 hPa Calm     92% 0 mm WeatherDisplay:10.37 W/m2 FEW
22:26 -19.6 °C -20.2 °C 34107.2 hPa Calm     92% 0 mm WeatherDisplay:10.37 W/m2 FEW
22:31 -19.6 °C -20.2 °C 34120.7 hPa Calm     92% 0 mm WeatherDisplay:10.37 W/m2 FEW
22:37 -19.6 °C -20.2 °C 34120.7 hPa Calm     92% 0 mm WeatherDisplay:10.37 W/m2 FEW
22:42 -19.6 °C -20.2 °C 34120.7 hPa Calm     92% 0 mm WeatherDisplay:10.37 W/m2 FEW
22:47 -19.7 °C -20.3 °C 34120.7 hPa Calm     92% 0 mm WeatherDisplay:10.37 W/m2 FEW
22:52 -19.7 °C -20.3 °C 34120.7 hPa Calm     92% 0 mm WeatherDisplay:10.37 W/m2 FEW
22:57 -19.7 °C -20.3 °C 34120.7 hPa Calm     92% 0 mm WeatherDisplay:10.37 W/m2 FEW
23:02 -19.7 °C -20.3 °C 34120.7 hPa Calm     92% 0 mm WeatherDisplay:10.37 W/m2 FEW
23:07 -19.7 °C -20.3 °C 34120.7 hPa Calm     92% 0 mm WeatherDisplay:10.37 W/m2 FEW
23:12 -19.7 °C -20.3 °C 34130.9 hPa Calm     92% 0 mm WeatherDisplay:10.37 W/m2 FEW
23:18 -19.8 °C -20.4 °C 34130.9 hPa Calm     91% 0 mm WeatherDisplay:10.37 W/m2 FEW
23:23 -19.8 °C -20.4 °C 34130.9 hPa Calm     91% 0 mm WeatherDisplay:10.37 W/m2 FEW
23:28 -19.8 °C -20.5 °C 34130.9 hPa Calm     91% 0 mm WeatherDisplay:10.37 W/m2 FEW
23:33 -19.8 °C -20.5 °C 34130.9 hPa Calm     91% 0 mm WeatherDisplay:10.37 W/m2 FEW
23:38 -19.8 °C -20.5 °C 34130.9 hPa Calm     91% 0 mm WeatherDisplay:10.37 W/m2 FEW
23:43 -19.8 °C -20.5 °C 34130.9 hPa Calm     91% 0 mm WeatherDisplay:10.37 W/m2 FEW
23:48 -19.8 °C -20.4 °C 34130.9 hPa Calm     91% 0 mm WeatherDisplay:10.37 W/m2 FEW
23:53 -19.8 °C -20.4 °C 34130.9 hPa Calm     91% 0 mm WeatherDisplay:10.37 W/m2 FEW
23:58 -19.8 °C -20.4 °C 34130.9 hPa Calm     91% 0 mm WeatherDisplay:10.37 W/m2 FEW
Tuulensuunkaari, Veikkola, Suomi
Compliments of Weather Underground - 2.75 mb